createdAt,value
2022-09-27T00:00:47.795Z,10.60
2022-09-27T00:03:14.614Z,10.60
2022-09-27T00:05:41.457Z,10.60
2022-09-27T00:08:08.658Z,10.50
2022-09-27T00:10:35.682Z,10.50
2022-09-27T00:13:02.454Z,10.50
2022-09-27T00:15:29.217Z,10.50
2022-09-27T00:17:56.086Z,10.50
2022-09-27T00:20:22.904Z,10.50
2022-09-27T00:22:49.970Z,10.50
2022-09-27T00:25:17.582Z,10.50
2022-09-27T00:27:44.839Z,10.50
2022-09-27T00:30:12.579Z,10.40
2022-09-27T00:32:40.350Z,10.50
2022-09-27T00:35:07.411Z,10.50
2022-09-27T00:37:34.282Z,10.50
2022-09-27T00:40:01.352Z,10.60
2022-09-27T00:42:28.122Z,10.50
2022-09-27T00:45:17.418Z,10.50
2022-09-27T00:47:55.630Z,10.60
2022-09-27T00:50:30.967Z,10.50
2022-09-27T00:53:03.682Z,10.50
2022-09-27T00:55:40.581Z,10.60
2022-09-27T00:58:08.338Z,10.50
2022-09-27T01:00:38.791Z,10.50
2022-09-27T01:03:09.632Z,10.50
2022-09-27T01:05:36.414Z,10.50
2022-09-27T01:08:04.071Z,10.50
2022-09-27T01:10:40.497Z,10.40
2022-09-27T01:13:12.874Z,10.40
2022-09-27T01:16:13.372Z,10.40
2022-09-27T01:19:18.018Z,10.50
2022-09-27T01:21:47.219Z,10.50
2022-09-27T01:24:44.848Z,10.50
2022-09-27T01:27:26.910Z,10.40
2022-09-27T01:30:11.834Z,10.40
2022-09-27T01:33:19.234Z,10.40
2022-09-27T01:36:07.545Z,10.50
2022-09-27T01:38:42.314Z,10.40
2022-09-27T01:41:42.571Z,10.50
2022-09-27T01:44:34.293Z,10.40
2022-09-27T01:47:17.734Z,10.40
2022-09-27T01:50:18.649Z,10.30
2022-09-27T01:53:15.288Z,10.20
2022-09-27T01:56:06.345Z,10.10
2022-09-27T01:58:59.328Z,10.00
2022-09-27T02:01:29.865Z,9.90
2022-09-27T02:03:59.139Z,9.90
2022-09-27T02:06:55.199Z,9.90
2022-09-27T02:09:32.634Z,9.90
2022-09-27T02:12:27.332Z,9.80
2022-09-27T02:15:17.638Z,9.80
2022-09-27T02:18:02.097Z,9.80
2022-09-27T02:20:30.978Z,9.80
2022-09-27T02:23:21.339Z,9.80
2022-09-27T02:26:01.849Z,9.80
2022-09-27T02:28:56.274Z,9.80
2022-09-27T02:31:29.916Z,9.80
2022-09-27T02:34:06.146Z,9.80
2022-09-27T02:36:33.198Z,9.70
2022-09-27T02:39:01.304Z,9.60
2022-09-27T02:41:31.942Z,9.60
2022-09-27T02:44:03.974Z,9.60
2022-09-27T02:47:01.667Z,9.60
2022-09-27T02:49:32.328Z,9.70
2022-09-27T02:52:42.992Z,9.60
2022-09-27T02:55:51.853Z,9.60
2022-09-27T02:58:43.631Z,9.50
2022-09-27T03:01:59.746Z,9.50
2022-09-27T03:04:39.634Z,9.50
2022-09-27T03:07:07.535Z,9.50
2022-09-27T03:09:44.727Z,9.50
2022-09-27T03:12:12.050Z,9.60
2022-09-27T03:14:39.182Z,9.60
2022-09-27T03:17:28.711Z,9.60
2022-09-27T03:20:13.896Z,9.60
2022-09-27T03:23:06.862Z,9.60
2022-09-27T03:25:34.010Z,9.60
2022-09-27T03:28:01.543Z,9.60
2022-09-27T03:30:28.719Z,9.70
2022-09-27T03:32:55.830Z,9.70
2022-09-27T03:35:43.954Z,9.70
2022-09-27T03:38:11.314Z,9.70
2022-09-27T03:40:39.303Z,9.70
2022-09-27T03:43:07.537Z,9.60
2022-09-27T03:45:34.552Z,9.50
2022-09-27T03:48:05.690Z,9.50
2022-09-27T03:50:32.517Z,9.50
2022-09-27T03:52:59.447Z,9.50
2022-09-27T03:55:26.584Z,9.40
2022-09-27T03:57:53.570Z,9.40
2022-09-27T04:00:21.051Z,9.30
2022-09-27T04:05:30.476Z,9.20
2022-09-27T04:08:01.792Z,9.20
2022-09-27T04:10:31.387Z,9.10
2022-09-27T04:12:58.530Z,9.10
2022-09-27T04:15:31.160Z,9.10
2022-09-27T04:18:33.013Z,9.10
2022-09-27T04:21:20.695Z,9.10
2022-09-27T04:23:51.578Z,9.00
2022-09-27T04:26:22.319Z,8.90
2022-09-27T04:28:59.161Z,8.90
2022-09-27T04:31:26.126Z,8.90
2022-09-27T04:34:13.037Z,8.90
2022-09-27T04:36:40.040Z,8.80
2022-09-27T04:39:29.686Z,8.80
2022-09-27T04:41:57.121Z,8.90
2022-09-27T04:44:23.982Z,8.90
2022-09-27T04:46:50.818Z,8.90
2022-09-27T04:49:18.012Z,8.90
2022-09-27T04:51:45.283Z,9.00
2022-09-27T04:54:12.102Z,9.10
2022-09-27T04:56:48.885Z,9.10
2022-09-27T04:59:16.590Z,9.10
2022-09-27T05:01:43.539Z,9.10
2022-09-27T05:04:16.483Z,9.10
2022-09-27T05:06:48.470Z,9.10
2022-09-27T05:09:23.120Z,9.10
2022-09-27T05:11:52.723Z,9.10
2022-09-27T05:14:28.551Z,9.10
2022-09-27T05:17:23.599Z,9.10
2022-09-27T05:20:10.738Z,9.10
2022-09-27T05:22:42.683Z,9.20
2022-09-27T05:25:10.635Z,9.10
2022-09-27T05:27:37.450Z,9.10
2022-09-27T05:30:08.112Z,9.10
2022-09-27T05:32:57.491Z,9.10
2022-09-27T05:35:57.974Z,9.20
2022-09-27T05:38:30.195Z,9.20
2022-09-27T05:40:59.747Z,9.20
2022-09-27T05:43:28.353Z,9.20
2022-09-27T05:45:57.200Z,9.20
2022-09-27T05:48:24.073Z,9.30
2022-09-27T05:51:04.498Z,9.30
2022-09-27T05:53:32.475Z,9.30
2022-09-27T05:56:06.674Z,9.40
2022-09-27T05:58:57.262Z,9.40
2022-09-27T06:01:27.805Z,9.40
2022-09-27T06:04:18.294Z,9.40
2022-09-27T06:06:59.041Z,9.40
2022-09-27T06:09:28.235Z,9.40
2022-09-27T06:11:56.867Z,9.40
2022-09-27T06:14:24.167Z,9.50
2022-09-27T06:16:57.361Z,9.50
2022-09-27T06:19:27.520Z,9.50
2022-09-27T06:21:55.493Z,9.50
2022-09-27T06:24:22.602Z,9.50
2022-09-27T06:26:49.421Z,9.50
2022-09-27T06:29:46.223Z,9.60
2022-09-27T06:32:22.367Z,9.50
2022-09-27T06:34:58.295Z,9.60
2022-09-27T06:37:27.054Z,9.60
2022-09-27T06:39:54.409Z,9.60
2022-09-27T06:42:40.398Z,9.60
2022-09-27T06:45:31.786Z,9.60
2022-09-27T06:48:17.516Z,9.60
2022-09-27T06:51:11.736Z,9.60
2022-09-27T06:53:38.697Z,9.70
2022-09-27T06:56:05.654Z,9.70
2022-09-27T06:59:02.482Z,9.80
2022-09-27T07:01:41.497Z,9.80
2022-09-27T07:04:39.983Z,9.80
2022-09-27T07:07:28.809Z,9.90
2022-09-27T07:09:56.202Z,9.90
2022-09-27T07:12:26.753Z,10.00
2022-09-27T07:14:54.103Z,10.00
2022-09-27T07:17:21.096Z,10.10
2022-09-27T07:19:49.893Z,10.20
2022-09-27T07:22:18.269Z,10.30
2022-09-27T07:24:50.950Z,10.30
2022-09-27T07:27:18.698Z,10.40
2022-09-27T07:29:45.818Z,10.60
2022-09-27T07:32:12.641Z,10.80
2022-09-27T07:34:39.649Z,10.80
2022-09-27T07:37:07.084Z,10.90
2022-09-27T07:39:39.705Z,10.90
2022-09-27T07:42:06.538Z,10.90
2022-09-27T07:44:36.495Z,10.90
2022-09-27T07:47:27.500Z,11.00
2022-09-27T07:50:10.852Z,11.00
2022-09-27T07:53:04.947Z,11.10
2022-09-27T07:55:53.575Z,11.10
2022-09-27T07:58:24.119Z,11.10
2022-09-27T08:00:54.574Z,11.00
2022-09-27T08:03:21.458Z,11.00
2022-09-27T08:05:48.743Z,10.90
2022-09-27T08:08:16.806Z,10.80
2022-09-27T08:10:47.521Z,10.80
2022-09-27T08:13:19.959Z,10.70
2022-09-27T08:15:48.701Z,10.60
2022-09-27T08:18:16.523Z,10.50
2022-09-27T08:21:00.778Z,10.50
2022-09-27T08:23:57.078Z,10.50
2022-09-27T08:26:32.269Z,10.40
2022-09-27T08:29:10.511Z,10.50
2022-09-27T08:31:42.493Z,10.50
2022-09-27T08:34:09.409Z,10.50
2022-09-27T08:36:37.586Z,10.60
2022-09-27T08:39:05.325Z,10.60
2022-09-27T08:41:52.418Z,10.60
2022-09-27T08:44:47.338Z,10.60
2022-09-27T08:47:19.363Z,10.80
2022-09-27T08:50:03.150Z,10.90
2022-09-27T08:52:32.614Z,11.00
2022-09-27T08:55:06.274Z,11.00
2022-09-27T08:57:33.176Z,11.10
2022-09-27T09:00:12.411Z,11.30
2022-09-27T09:02:42.014Z,11.40
2022-09-27T09:05:31.235Z,11.50
2022-09-27T09:08:29.485Z,11.70
2022-09-27T09:11:27.966Z,11.90
2022-09-27T09:14:03.923Z,12.10
2022-09-27T09:16:53.406Z,12.30
2022-09-27T09:19:27.168Z,12.50
2022-09-27T09:22:33.792Z,12.50
2022-09-27T09:25:16.147Z,12.60
2022-09-27T09:28:01.631Z,12.50
2022-09-27T09:30:50.501Z,12.40
2022-09-27T09:33:28.660Z,12.30
2022-09-27T09:36:03.808Z,12.00
2022-09-27T09:38:42.678Z,11.80
2022-09-27T09:41:28.158Z,11.60
2022-09-27T09:44:05.066Z,11.50
2022-09-27T09:46:44.886Z,11.60
2022-09-27T09:49:16.530Z,11.50
2022-09-27T09:51:51.221Z,11.40
2022-09-27T09:54:35.235Z,11.20
2022-09-27T09:57:41.708Z,11.20
2022-09-27T10:00:17.289Z,11.20
2022-09-27T10:05:29.412Z,11.30
2022-09-27T10:08:04.566Z,11.30
2022-09-27T10:10:31.995Z,11.40
2022-09-27T10:13:20.491Z,11.40
2022-09-27T10:16:14.182Z,11.60
2022-09-27T10:18:47.617Z,11.60
2022-09-27T10:21:28.025Z,11.60
2022-09-27T10:24:04.689Z,11.60
2022-09-27T10:26:56.722Z,11.70
2022-09-27T10:29:36.352Z,11.90
2022-09-27T10:32:11.955Z,12.10
2022-09-27T10:34:43.438Z,12.20
2022-09-27T10:37:13.197Z,12.30
2022-09-27T10:39:51.894Z,12.50
2022-09-27T10:42:38.979Z,12.60
2022-09-27T10:45:33.992Z,12.60
2022-09-27T10:48:24.862Z,12.50
2022-09-27T10:51:05.336Z,12.50
2022-09-27T10:53:46.856Z,12.60
2022-09-27T10:56:36.289Z,12.50
2022-09-27T10:59:05.318Z,12.40
2022-09-27T11:01:59.758Z,12.50
2022-09-27T11:04:35.879Z,12.70
2022-09-27T11:07:12.812Z,12.80
2022-09-27T11:09:54.950Z,12.70
2022-09-27T11:12:25.272Z,12.60
2022-09-27T11:15:06.149Z,12.60
2022-09-27T11:17:47.759Z,12.70
2022-09-27T11:20:40.897Z,13.00
2022-09-27T11:23:43.166Z,13.10
2022-09-27T11:26:57.611Z,13.20
2022-09-27T11:29:46.533Z,13.00
2022-09-27T11:32:58.638Z,13.00
2022-09-27T11:35:32.654Z,12.60
2022-09-27T11:38:34.972Z,12.30
2022-09-27T11:41:44.341Z,12.10
2022-09-27T11:44:36.110Z,12.00
2022-09-27T11:47:17.186Z,11.90
2022-09-27T11:50:03.245Z,11.90
2022-09-27T11:52:48.589Z,12.00
2022-09-27T11:55:26.649Z,12.20
2022-09-27T11:58:27.623Z,12.40
2022-09-27T12:01:27.737Z,12.40
2022-09-27T12:04:09.837Z,12.60
2022-09-27T12:07:05.174Z,12.60
2022-09-27T12:09:39.542Z,12.60
2022-09-27T12:12:28.929Z,12.60
2022-09-27T12:15:13.050Z,12.60
2022-09-27T12:17:44.960Z,12.50
2022-09-27T12:20:21.425Z,12.50
2022-09-27T12:23:01.513Z,12.50
2022-09-27T12:25:53.359Z,12.50
2022-09-27T12:28:55.363Z,12.60
2022-09-27T12:31:30.786Z,12.70
2022-09-27T12:34:33.080Z,12.70
2022-09-27T12:37:08.524Z,12.70
2022-09-27T12:39:38.354Z,12.70
2022-09-27T12:42:22.658Z,12.60
2022-09-27T12:44:52.439Z,12.70
2022-09-27T12:47:44.605Z,12.90
2022-09-27T12:50:23.840Z,13.00
2022-09-27T12:52:56.423Z,12.90
2022-09-27T12:55:39.533Z,12.90
2022-09-27T12:58:36.829Z,13.00
2022-09-27T13:01:27.882Z,13.00
2022-09-27T13:04:13.431Z,13.00
2022-09-27T13:06:59.430Z,13.00
2022-09-27T13:09:50.594Z,13.00
2022-09-27T13:12:24.930Z,13.20
2022-09-27T13:15:13.565Z,13.30
2022-09-27T13:17:46.215Z,13.40
2022-09-27T13:20:31.440Z,13.50
2022-09-27T13:23:01.484Z,13.60
2022-09-27T13:25:57.605Z,13.70
2022-09-27T13:29:03.344Z,13.70
2022-09-27T13:31:57.796Z,13.70
2022-09-27T13:34:46.588Z,13.60
2022-09-27T13:37:36.796Z,13.50
2022-09-27T13:40:24.114Z,13.50
2022-09-27T13:43:20.221Z,13.50
2022-09-27T13:45:58.591Z,13.60
2022-09-27T13:48:26.495Z,13.80
2022-09-27T13:51:02.610Z,13.90
2022-09-27T13:53:40.599Z,13.80
2022-09-27T13:56:36.766Z,13.90
2022-09-27T13:59:12.178Z,13.90
2022-09-27T14:01:56.460Z,13.90
2022-09-27T14:04:51.606Z,13.80
2022-09-27T14:07:24.972Z,13.80
2022-09-27T14:10:00.687Z,13.90
2022-09-27T14:12:40.382Z,13.90
2022-09-27T14:15:21.158Z,13.80
2022-09-27T14:17:48.164Z,13.80
2022-09-27T14:20:36.112Z,13.70
2022-09-27T14:23:05.050Z,13.80
2022-09-27T14:25:44.442Z,13.70
2022-09-27T14:28:27.383Z,13.50
2022-09-27T14:31:14.450Z,13.30
2022-09-27T14:34:09.008Z,13.00
2022-09-27T14:36:57.270Z,12.70
2022-09-27T14:39:33.483Z,12.50
2022-09-27T14:42:16.797Z,12.20
2022-09-27T14:44:45.482Z,11.90
2022-09-27T14:47:21.906Z,11.60
2022-09-27T14:49:52.293Z,11.30
2022-09-27T14:52:24.207Z,11.10
2022-09-27T14:54:58.364Z,11.10
2022-09-27T14:57:27.300Z,11.10
2022-09-27T14:59:54.523Z,11.10
2022-09-27T15:02:25.213Z,11.10
2022-09-27T15:04:53.229Z,11.10
2022-09-27T15:07:22.286Z,11.10
2022-09-27T15:09:50.996Z,11.00
2022-09-27T15:12:25.387Z,11.00
2022-09-27T15:14:54.773Z,11.10
2022-09-27T15:20:20.046Z,11.00
2022-09-27T15:22:47.446Z,11.00
2022-09-27T15:25:32.381Z,10.90
2022-09-27T15:28:12.492Z,10.80
2022-09-27T15:30:42.498Z,10.80
2022-09-27T15:33:28.593Z,10.60
2022-09-27T15:35:57.785Z,10.50
2022-09-27T15:38:47.353Z,10.60
2022-09-27T15:56:29.059Z,10.60
2022-09-27T15:58:55.834Z,10.60
2022-09-27T16:01:23.141Z,10.60
2022-09-27T16:03:49.901Z,10.60
2022-09-27T16:06:18.410Z,10.50
2022-09-27T16:08:45.689Z,10.60
2022-09-27T16:11:17.284Z,10.60
2022-09-27T16:13:44.676Z,10.60
2022-09-27T16:16:20.474Z,10.60
2022-09-27T16:18:47.731Z,10.60
2022-09-27T16:21:15.041Z,10.70
2022-09-27T16:23:41.853Z,10.60
2022-09-27T16:26:08.699Z,10.60
2022-09-27T16:28:35.482Z,10.60
2022-09-27T16:31:07.149Z,10.60
2022-09-27T16:33:34.550Z,10.60
2022-09-27T16:36:06.938Z,10.50
2022-09-27T16:38:33.919Z,10.50
2022-09-27T16:41:04.178Z,10.50
2022-09-27T16:43:32.313Z,10.50
2022-09-27T16:46:11.665Z,10.40
2022-09-27T16:48:39.238Z,10.30
2022-09-27T16:51:36.949Z,10.30
2022-09-27T16:54:05.705Z,10.20
2022-09-27T16:56:33.850Z,10.20
2022-09-27T16:59:03.781Z,10.10
2022-09-27T17:01:31.747Z,10.10
2022-09-27T17:03:59.735Z,10.10
2022-09-27T17:06:31.900Z,10.10
2022-09-27T17:09:02.481Z,10.10
2022-09-27T17:11:30.047Z,10.10
2022-09-27T17:13:56.840Z,10.00
2022-09-27T17:16:24.833Z,10.00
2022-09-27T17:18:51.997Z,10.10
2022-09-27T17:21:19.414Z,10.10
2022-09-27T17:23:46.743Z,10.10
2022-09-27T17:26:24.026Z,10.00
2022-09-27T17:28:54.986Z,10.00
2022-09-27T17:31:21.837Z,10.00
2022-09-27T17:33:55.490Z,10.00
2022-09-27T17:36:28.766Z,9.90
2022-09-27T17:38:55.969Z,10.00
2022-09-27T17:41:25.077Z,10.00
2022-09-27T17:44:00.154Z,10.00
2022-09-27T17:46:33.025Z,10.00
2022-09-27T17:49:19.143Z,10.00
2022-09-27T17:51:48.267Z,10.00
2022-09-27T17:54:16.863Z,10.00
2022-09-27T17:56:44.448Z,10.00
2022-09-27T17:59:12.714Z,9.90
2022-09-27T18:01:40.035Z,9.90
2022-09-27T18:04:11.670Z,9.80
2022-09-27T18:06:43.960Z,9.80
2022-09-27T18:09:13.450Z,9.90
2022-09-27T18:11:40.835Z,9.90
2022-09-27T18:14:10.313Z,9.90
2022-09-27T18:16:41.053Z,9.90
2022-09-27T18:19:10.654Z,9.80
2022-09-27T18:21:37.470Z,9.80
2022-09-27T18:24:06.541Z,9.80
2022-09-27T18:26:36.645Z,9.90
2022-09-27T18:46:39.882Z,9.90
2022-09-27T18:49:09.420Z,9.90
2022-09-27T18:51:37.907Z,9.80
2022-09-27T18:54:13.092Z,9.90
2022-09-27T18:56:41.089Z,9.80
2022-09-27T18:59:09.584Z,9.80
2022-09-27T19:01:39.878Z,9.80
2022-09-27T19:04:11.692Z,9.80
2022-09-27T19:06:39.455Z,9.90
2022-09-27T19:09:07.305Z,9.80
2022-09-27T19:11:34.214Z,9.70
2022-09-27T19:14:01.573Z,9.70
2022-09-27T19:16:29.523Z,9.50
2022-09-27T19:18:56.513Z,9.50
2022-09-27T19:21:29.119Z,9.50
2022-09-27T19:23:56.734Z,9.40
2022-09-27T19:26:26.242Z,9.40
2022-09-27T19:28:53.344Z,9.40
2022-09-27T19:31:23.991Z,9.40
2022-09-27T19:33:55.024Z,9.40
2022-09-27T19:36:24.451Z,9.40
2022-09-27T19:38:52.029Z,9.20
2022-09-27T19:41:19.920Z,9.10
2022-09-27T19:43:54.398Z,9.10
2022-09-27T19:46:22.917Z,9.20
2022-09-27T19:48:50.579Z,9.10
2022-09-27T19:51:19.985Z,9.00
2022-09-27T19:53:47.154Z,9.00
2022-09-27T19:56:14.610Z,8.90
2022-09-27T19:58:42.326Z,9.00
2022-09-27T20:01:11.447Z,9.00
2022-09-27T20:03:41.133Z,9.00
2022-09-27T20:06:10.525Z,9.00
2022-09-27T20:08:37.968Z,9.00
2022-09-27T20:11:07.587Z,9.00
2022-09-27T20:13:35.894Z,9.00
2022-09-27T20:16:05.604Z,9.00
2022-09-27T20:18:33.075Z,9.00
2022-09-27T20:21:04.241Z,9.00
2022-09-27T20:23:32.973Z,8.90
2022-09-27T20:26:04.887Z,8.90
2022-09-27T20:28:31.795Z,9.00
2022-09-27T20:31:04.174Z,8.90
2022-09-27T20:33:49.498Z,8.90
2022-09-27T20:36:24.835Z,8.90
2022-09-27T20:39:01.971Z,9.00
2022-09-27T20:41:31.765Z,9.00
2022-09-27T20:44:00.860Z,8.90
2022-09-27T20:46:27.790Z,8.90
2022-09-27T20:48:56.752Z,8.80
2022-09-27T20:51:24.350Z,8.90
2022-09-27T20:53:51.913Z,8.90
2022-09-27T20:56:27.659Z,8.80
2022-09-27T20:58:56.682Z,8.80
2022-09-27T21:01:24.846Z,8.80
2022-09-27T21:03:56.565Z,8.80
2022-09-27T21:06:23.799Z,8.80
2022-09-27T21:08:51.364Z,8.90
2022-09-27T21:11:18.767Z,8.90
2022-09-27T21:13:47.315Z,8.90
2022-09-27T21:16:19.561Z,8.80
2022-09-27T21:18:49.638Z,8.80
2022-09-27T21:21:17.069Z,8.80
2022-09-27T21:23:45.351Z,8.80
2022-09-27T21:26:14.730Z,8.70
2022-09-27T21:28:43.678Z,8.70
2022-09-27T21:31:13.382Z,8.70
2022-09-27T21:33:41.174Z,8.60
2022-09-27T21:36:11.010Z,8.60
2022-09-27T21:38:38.738Z,8.50
2022-09-27T21:41:14.666Z,8.60
2022-09-27T21:43:42.479Z,8.60
2022-09-27T21:46:15.346Z,8.50
2022-09-27T21:48:45.128Z,8.50
2022-09-27T21:51:13.527Z,8.50
2022-09-27T21:53:41.950Z,8.40
2022-09-27T21:56:10.122Z,8.30
2022-09-27T21:58:40.086Z,8.30
2022-09-27T22:01:15.263Z,8.30
2022-09-27T22:03:43.554Z,8.30
2022-09-27T22:06:12.983Z,8.20
2022-09-27T22:08:39.722Z,8.20
2022-09-27T22:11:07.227Z,8.20
2022-09-27T22:13:34.634Z,8.20
2022-09-27T22:16:10.587Z,8.20
2022-09-27T22:18:38.559Z,8.20
2022-09-27T22:21:07.618Z,8.20
2022-09-27T22:23:35.347Z,8.30
2022-09-27T22:26:18.720Z,8.30
2022-09-27T22:28:46.703Z,8.30
2022-09-27T22:31:15.580Z,8.30
2022-09-27T22:33:43.193Z,8.30
2022-09-27T22:36:09.946Z,8.20
2022-09-27T22:38:36.694Z,8.10
2022-09-27T22:41:04.378Z,8.10
2022-09-27T22:43:31.949Z,8.10
2022-09-27T22:48:37.307Z,8.00
2022-09-27T22:51:05.301Z,8.00
2022-09-27T22:53:32.759Z,8.10
2022-09-27T22:56:04.811Z,8.10
2022-09-27T22:58:32.384Z,8.20
2022-09-27T23:00:59.942Z,8.10
2022-09-27T23:03:26.726Z,8.20
2022-09-27T23:05:53.525Z,8.20
2022-09-27T23:08:20.265Z,8.30
2022-09-27T23:10:47.038Z,8.30
2022-09-27T23:13:13.819Z,8.20
2022-09-27T23:15:40.562Z,8.30
2022-09-27T23:18:07.370Z,8.20
2022-09-27T23:20:34.536Z,8.30
2022-09-27T23:23:01.771Z,8.20
2022-09-27T23:25:28.557Z,8.20
2022-09-27T23:27:55.326Z,8.20
2022-09-27T23:30:24.563Z,8.20
2022-09-27T23:32:58.065Z,8.30
2022-09-27T23:35:26.716Z,8.30
2022-09-27T23:37:54.403Z,8.40
2022-09-27T23:40:21.224Z,8.40
2022-09-27T23:42:48.050Z,8.40
2022-09-27T23:45:15.941Z,8.40
2022-09-27T23:47:42.731Z,8.30
2022-09-27T23:50:09.966Z,8.30
2022-09-27T23:52:36.777Z,8.30
2022-09-27T23:55:03.818Z,8.30
2022-09-27T23:57:31.013Z,8.20
2022-09-27T23:59:57.752Z,8.10
